Kolkata, India

11:27 PM IST on October 25, 2014 (GMT +0530)
Netaji Subhash Chandra Bose International | Change Station
CLOSE
Current Station
Airport
Location: Kolkata,
Elevation: 20 ft
Nearby Weather Stations

Elev 20 ft 22.65 °N, 88.44 °E | Updated 7 minutes ago

Haze
Haze
77 °F
Feels Like 77 °F
N
0
Wind Variable Wind from North

Today
High -- | Low -- °F
--% Chance of Precip.
Yesterday
High -- | Low -- °F
Precip. -- in
5:36 AM 5:03 PM
Waxing Crescent, 4% visible
Pressure 29.89 in
Visibility 1.6 miles
Clouds Few 2000 ft
Dew Point 70 °F
Humidity 78%
Rainfall 0.00 in
Snow Depth Not available.
UV 0 out of 12
Pollen Not available.
Air Quality Not available.
Flu Activity Not available.
METAR VECC 251750Z 00000KT 2500 HZ FEW020 25/21 Q1012 NOSIG

More Conditions Fewer Conditions

Pressure 29.89 in
Visibility 1.6 miles
Clouds Few 2000 ft
Dew Point 70 °F
Humidity 78%
Rainfall 0.00 in
Snow Depth Not available.
UV 0 out of 12
Pollen Not available.
Air Quality Not available.
Flu Activity Not available.
METAR VECC 251750Z 00000KT 2500 HZ FEW020 25/21 Q1012 NOSIG

More Conditions Fewer Conditions

10-Day Weather Forecast

Almanac

Astronomy

Oct. 25, 2014 Rise Set
Actual Time 5:36 AM IST 5:03 PM IST
Civil Twilight 5:14 AM IST 5:26 PM IST
Nautical Twilight 4:47 AM IST 5:52 PM IST
Astronomical Twilight 4:21 AM IST 6:18 PM IST
Moon 6:40 AM IST 6:12 PM IST
Length of Visible Light 12h 12m
Length of Day
11h 26m
Tomorrow will be 1m 11s shorter.
Waxing Crescent, 4% of the Moon is Illuminated
Today
Waxing Crescent
Oct 30
First Quarter
Nov 6
Full
Nov 14
Last Quarter
Nov 22
New

Today's Extremes

Country Highs Country Lows

Community

WunderPhotos

Upload Photos

1,764,919 photos uploaded!

Nearby

Snow Depth

Not available.

Earthquake Activity

City Distance Mag. Time & Date
No recent earthquake activity has been reported nearby.
Minimum magnitude displayed is 2.5.

Coastal Water Temperatures

Place Temperature
No Stations Reporting

Nearby Weather Stations